Hualapai Flat, Nevada Weather observations

Data are for 10 minute period ending at time listed.
 Day   Time   Solar   Ave.   Ave.  Ave.  Vector  Max.   Baro.   Total    
  of    of     Rad.   Air    Rel.  Wind   Wind   Wind  Press.  Precip.   
Year   Day            Temp.  Hum.  Speed  Dir.   Gust                    
2016   (PST)  Kw/m2    F      %     mph   deg.    mph    mb.     in.     
-------------------------------------------------------------------------
  40    9:30   0.41   43.9    76    2.0   133     3.4   889.2    0.00 
  40    9:40   0.43   45.2    76    2.7   168     5.4   889.2    0.00 
  40    9:50   0.45   45.8    73    3.1   167     5.2   889.2    0.00 
  40   10:00   0.47   47.0    72    3.1   173     4.5   889.3    0.00 
  40   10:10   0.49   47.8    70    2.4   171     4.7   889.3    0.00 
  40   10:20   0.51   48.6    68    3.9   174     5.8   889.2    0.00 
  40   10:30   0.52   47.4    66    3.7   154     5.6   889.2    0.00 
  40   10:40   0.54   47.7    66    3.6   152     5.5   889.2    0.00 
  40   10:50   0.55   49.9    64    3.9   183     6.1   889.3    0.00 
  40   11:00   0.56   51.5    61    4.0   185     6.5   889.3    0.00 
  40   11:10   0.57   50.7    59    4.9   140     7.7   889.2    0.00 
  40   11:20   0.58   48.4    61    4.5   126     7.3   889.0    0.00 
  40   11:30   0.37   49.2    60    3.0   118     5.6   888.9    0.00 
  40   11:40   0.59   49.3    60    3.1   111     7.4   888.8    0.00 
  40   11:50   0.60   50.6    59    4.4   146     7.1   888.6    0.00 
  40   12:00   0.60   53.3    55    5.5   161     8.6   888.4    0.00 
  40   12:10   0.60   52.8    54    4.5   149     7.0   888.2    0.00 
  40   12:20   0.60   52.7    54    6.2   145    10.9   887.9    0.00 
  40   12:30   0.60   51.9    56    5.5   142     9.1   887.8    0.00 
  40   12:40   0.59   53.0    54    4.5   143     8.3   887.7    0.00 
  40   12:50   0.58   53.2    53    5.9   146     9.1   887.6    0.00 
  40   13:00   0.55   53.2    53    5.2   152     9.9   887.4    0.00 
  40   13:10   0.60   54.4    51    5.4   143     8.6   887.2    0.00 
  40   13:20   0.60   53.4    52    4.0   140     7.2   887.0    0.00 
  40   13:30   0.57   54.1    52    4.6   143     8.0   886.8    0.00 
  40   13:40   0.55   53.5    51    4.6   129     8.3   886.6    0.00 
  40   13:50   0.53   55.3    49    5.6   156     8.8   886.4    0.00 
  40   14:00   0.51   54.7    47    4.9   146     7.7   886.3    0.00 
  40   14:10   0.48   55.5    47    5.2   165     9.4   886.2    0.00 
  40   14:20   0.46   57.0    45    6.3   164     9.0   886.1    0.00 
  40   14:30   0.44   55.6    46    6.1   146     9.4   886.1    0.00 
  40   14:40   0.42   54.6    46    5.0   145     8.2   886.1    0.00 
  40   14:50   0.40   54.4    47    4.8   144     8.1   886.1    0.00 
  40   15:00   0.38   55.5    45    3.8   160     6.5   886.0    0.00 
  40   15:10   0.35   55.5    45    4.8   150     7.5   885.8    0.00 
  40   15:20   0.31   56.7    44    4.9   175     7.1   885.8    0.00 
  40   15:30   0.20   55.3    45    3.9   139     6.3   885.7    0.00 
  40   15:40   0.23   54.5    46    4.7   139     6.7   885.6    0.00 
  40   15:50   0.14   54.4    46    4.8   160     6.4   885.6    0.00 
  40   16:00   0.17   54.9    46    4.2   160     6.1   885.6    0.00 
  40   16:10   0.19   55.3    45    3.8   181     5.3   885.6    0.00 
  40   16:20   0.18   56.2    43    3.0   173     4.7   885.6    0.00 
  40   16:30   0.09   56.2    43    3.0   167     4.2   885.6    0.00 
  40   16:40   0.11   53.9    48    3.2   163     3.9   885.4    0.00 
  40   16:50   0.05   53.5    49    2.9   182     3.7   885.3    0.00 
  40   17:00   0.03   51.8    51    2.8   164     3.2   885.3    0.00 
  40   17:10   0.02   49.2    55    1.8   149     3.1   885.2    0.00 
  40   17:20   0.01   47.9    57    1.9   168     2.9   885.0    0.00 
  40   17:30   0.00   46.9    60    2.5   180     3.4   885.0    0.00 
  40   17:40   0.00   45.9    63    2.9   201     3.3   884.9    0.00 
  40   17:50   0.00   45.5    63    2.6   188     3.3   884.9    0.00 
  40   18:00   0.00   45.2    64    2.7   202     3.1   884.9    0.00 
  40   18:10   0.00   44.2    68    4.0   271     6.1   884.9    0.00 
  40   18:20   0.00   41.9    76    4.8   293     5.8   884.9    0.00 
  40   18:30   0.00   41.4    77    5.5   297     6.0   884.9    0.00 
  40   18:40   0.00   40.7    78    6.0   299     6.6   884.9    0.00 
  40   18:50   0.00   40.4    79    5.6   301     6.6   884.9    0.00 
  40   19:00   0.00   39.5    80    6.8   299     7.5   884.9    0.00 
  40   19:10   0.00   39.7    80    6.4   310     7.3   885.0    0.00 
  40   19:20   0.00   40.2    79    4.8   321     6.1   885.0    0.00 
  40   19:30   0.00   39.4    80    4.7   317     6.6   885.1    0.00 
  40   19:40   0.00   37.7    81    6.5   300     8.0   885.1    0.00 
  40   19:50   0.00   37.1    83    6.4   297     7.4   885.1    0.00 
  40   20:00   0.00   36.7    83    6.6   297     7.8   885.1    0.00 
  40   20:10   0.00   36.5    84    6.1   301     7.3   885.0    0.00 
  40   20:20   0.00   36.5    83    4.5   325     5.6   885.0    0.00 
  40   20:30   0.00   36.7    84    5.8   318     7.0   885.1    0.00 
  40   20:40   0.00   37.4    83    5.0   319     7.1   885.2    0.00 
  40   20:50   0.00   37.0    83    3.6   322     5.9   885.1    0.00 
  40   21:00   0.00   37.3    82    6.7   298     8.0   885.2    0.00 
  40   21:10   0.00   38.0    79    2.7   297     6.1   885.2    0.00 
  40   21:20   0.00   36.1    80    1.1   356     3.7   885.3    0.00 
  40   21:30   0.00   35.7    83    4.2   333     5.3   885.3    0.00 
  40   21:40   0.00   36.7    83    3.3   319     5.2   885.3    0.00 
  40   21:50   0.00   37.2    82    3.8   318     4.5   885.3    0.00 
  40   22:00   0.00   36.1    82    4.6   301     5.9   885.4    0.00 
  40   22:10   0.00   35.0    83    4.8   312     6.3   885.4    0.00 
  40   22:20   0.00   33.8    86    6.3   298     7.3   885.4    0.00 
  40   22:30   0.00   34.9    86    6.1   306     7.6   885.4    0.00 
  40   22:40   0.00   35.0    84    4.2   316     5.7   885.3    0.00 
  40   22:50   0.00   34.1    84    4.4   343     6.7   885.5    0.00 
  40   23:00   0.00   34.5    86    5.0   330     6.9   885.5    0.00 
  40   23:10   0.00   36.0    83    4.0   291     6.1   885.5    0.00 
  40   23:20   0.00   34.6    84    4.4   300     5.3   885.5    0.00 
  40   23:30   0.00   34.7    84    4.1   302     5.4   885.5    0.00 
  40   23:40   0.00   33.5    85    3.9   310     4.9   885.5    0.00 
  40   23:50   0.00   33.7    86    3.4   306     4.8   885.5    0.00 
  41    0:00   0.00   34.3    84    4.7   286     6.7   885.4    0.00 
  41    0:10   0.00   33.3    86    4.9   292     5.9   885.4    0.00 
  41    0:20   0.00   33.8    86    3.9   283     5.0   885.3    0.00 
  41    0:30   0.00   32.7    86    4.9   299     6.0   885.2    0.00 
  41    0:40   0.00   32.6    88    4.7   306     6.1   885.1    0.00 
  41    0:50   0.00   33.1    88    4.3   328     5.0   885.1    0.00 
  41    1:00   0.00   33.1    87    4.3   309     5.0   885.1    0.00 
  41    1:10   0.00   33.1    88    5.8   298     7.2   885.0    0.00 
  41    1:20   0.00   33.9    88    5.6   305     6.7   885.1    0.00 
  41    1:30   0.00   35.0    86    4.5   310     5.6   885.1    0.00 
  41    1:40   0.00   34.2    86    5.1   297     6.4   885.1    0.00 
  41    1:50   0.00   34.6    86    4.7   282     5.9   885.1    0.00 
  41    2:00   0.00   33.8    86    3.5   256     5.8   885.2    0.00 
  41    2:10   0.00   33.0    87    1.4   349     3.0   885.3    0.00 
  41    2:20   0.00   33.1    87    0.6   309     2.3   885.4    0.00 
  41    2:30   0.00   33.7    88    1.6   277     2.4   885.3    0.00 
  41    2:40   0.00   34.1    88    2.2   255     2.8   885.4    0.00 
  41    2:50   0.00   33.7    88    2.7   278     4.7   885.4    0.00 
  41    3:00   0.00   32.0    87    4.5   290     5.6   885.5    0.00 
  41    3:10   0.00   30.3    89    3.9   290     5.3   885.5    0.00 
  41    3:20   0.00   30.4    89    2.3   315     3.8   885.3    0.00 
  41    3:30   0.00   30.0    90    1.2   292     2.5   885.3    0.00 
  41    3:40   0.00   31.5    88    3.4   329     6.4   885.2    0.00 
  41    3:50   0.00   28.7    89    5.1   330     6.5   885.2    0.00 
  41    4:00   0.00   29.8    92    5.8   326     6.8   885.3    0.00 
  41    4:10   0.00   31.3    90    6.1   314     7.3   885.2    0.00 
  41    4:20   0.00   30.1    90    6.6   292     7.5   885.2    0.00 
  41    4:30   0.00   30.4    90    6.6   293     7.8   885.2    0.00 
  41    4:40   0.00   30.4    90    5.6   296     6.7   885.1    0.00 
  41    4:50   0.00   29.4    89    2.1    10     3.7   885.3    0.00 
  41    5:00   0.00   30.4    91    5.1   318     7.1   885.5    0.00 
  41    5:10   0.00   30.2    89    4.5   306     5.1   885.5    0.00 
  41    5:20   0.00   30.1    90    4.0   313     5.3   885.6    0.00 
  41    5:30   0.00   28.7    89    2.5   278     4.8   885.6    0.00 
  41    5:40   0.00   28.0    90    2.3   118     5.0   885.6    0.00 
  41    5:50   0.00   27.6    90    1.1   248     3.0   885.7    0.00 
  41    6:00   0.00   28.5    91    0.9   251     2.3   885.8    0.00 
  41    6:10   0.00   29.6    91    2.1   328     3.9   885.9    0.00 
  41    6:20   0.00   29.5    90    1.7   310     3.7   886.0    0.00 
  41    6:30   0.00   28.7    90    5.5   287     6.6   886.2    0.00 
  41    6:40   0.00   29.1    90    4.8   320     6.1   886.1    0.00 
  41    6:50   0.00   27.1    90    5.4   351     6.6   886.0    0.00 
  41    7:00   0.00   27.3    91    3.9   343     5.4   886.2    0.00 
  41    7:10   0.01   27.5    91    4.4   319     6.2   886.4    0.00 
  41    7:20   0.05   27.9    91    2.7   337     5.8   886.4    0.00 
  41    7:30   0.08   28.9    91    3.5   315     4.2   886.4    0.00 
  41    7:40   0.11   30.1    91    4.8   294     5.8   886.4    0.00 
  41    7:50   0.13   31.9    91    3.2   284     4.7   886.5    0.00 
  41    8:00   0.16   32.9    90    2.2    21     3.8   886.5    0.00 
  41    8:10   0.19   33.9    89    0.8   358     2.8   886.6    0.00 
  41    8:20   0.21   34.7    89    2.7   353     3.7   886.6    0.00 
  41    8:30   0.23   36.2    89    0.8   311     2.1   886.5    0.00 
  41    8:40   0.25   37.6    88    1.0    81     2.7   886.5    0.00 
  41    8:50   0.28   37.7    87    3.3    91     5.3   886.6    0.00 
  41    9:00   0.30   37.6    87    2.2    74     3.5   886.7    0.00 
  41    9:10   0.34   38.9    87    0.7    76     2.1   886.7    0.00 
  41    9:20   0.37   41.3    86    0.1   276     0.9   886.8    0.00 

Return to Hualapai Flat graphs page.


Western Regional Climate Center,wrcc@dri.edu